Time;durP1;ratioP1;P1;durP2;ratioP2;P2;SDS_P1;SDS_P2;PMS_P1;PMS_P2;Temp;Humidity;BMP_temperature;BMP_pressure;BME280_temperature;BME280_humidity;BME280_pressure;Samples;Min_cycle;Max_cycle;Signal;HPM_P1;HPM_P2
2023/12/31 00:03:03;;;;;;;14.60;3.00;;;;;;;2.94;100.00;99484.20;109200;1256;73176;-62
2023/12/31 00:05:51;;;;;;;12.50;3.70;;;;;;;2.93;100.00;99484.07;109138;1257;59799;-60
2023/12/31 00:08:39;;;;;;;17.40;3.70;;;;;;;2.93;100.00;99490.72;109239;1257;60259;-61
2023/12/31 00:11:26;;;;;;;15.00;3.60;;;;;;;2.87;100.00;99480.70;109212;1257;73785;-61
2023/12/31 00:14:14;;;;;;;12.10;3.30;;;;;;;2.94;100.00;99492.24;107650;1257;1002963;-60
2023/12/31 00:17:01;;;;;;;13.30;3.20;;;;;;;2.96;100.00;99492.66;109180;1257;72673;-61
2023/12/31 00:19:49;;;;;;;16.20;3.40;;;;;;;2.96;100.00;99498.94;109099;1257;58376;-59
2023/12/31 00:22:37;;;;;;;13.50;3.40;;;;;;;2.96;100.00;99503.35;109274;1256;57954;-60
2023/12/31 00:25:24;;;;;;;14.90;3.70;;;;;;;2.98;100.00;99502.35;109160;1257;73207;-61
2023/12/31 00:28:13;;;;;;;13.50;3.50;;;;;;;3.00;100.00;99497.81;109095;1257;67620;-61
2023/12/31 00:31:00;;;;;;;14.90;3.20;;;;;;;3.05;100.00;99494.96;109117;1258;73397;-62
2023/12/31 00:33:50;;;;;;;18.80;4.20;;;;;;;3.09;100.00;99487.52;109240;1257;57624;-61
2023/12/31 00:36:38;;;;;;;18.20;4.10;;;;;;;3.13;100.00;99486.12;109229;1256;61323;-61
2023/12/31 00:39:26;;;;;;;16.10;4.00;;;;;;;3.16;100.00;99490.87;109130;1257;73951;-60
2023/12/31 00:42:14;;;;;;;12.60;3.80;;;;;;;3.17;100.00;99491.85;109031;1257;66627;-59
2023/12/31 00:45:02;;;;;;;10.90;3.40;;;;;;;3.19;100.00;99492.41;109130;1257;71118;-58
2023/12/31 00:47:50;;;;;;;10.00;3.60;;;;;;;3.19;100.00;99489.09;109211;1257;57910;-61
2023/12/31 00:50:38;;;;;;;11.80;3.00;;;;;;;3.21;100.00;99490.05;109140;1257;59301;-60
2023/12/31 00:53:26;;;;;;;11.20;3.30;;;;;;;3.21;100.00;99490.04;109145;1257;71774;-59
2023/12/31 00:56:14;;;;;;;12.80;3.60;;;;;;;3.22;100.00;99486.45;109165;1257;67749;-60
2023/12/31 00:59:03;;;;;;;13.20;3.10;;;;;;;3.23;100.00;99488.18;109181;1256;73474;-61
2023/12/31 01:01:52;;;;;;;10.80;3.10;;;;;;;3.23;100.00;99485.36;109194;1257;57966;-60
2023/12/31 01:04:40;;;;;;;9.40;3.10;;;;;;;3.25;100.00;99489.64;109229;1257;60280;-61
2023/12/31 01:07:28;;;;;;;9.20;2.60;;;;;;;3.23;100.00;99493.05;109147;1256;72874;-60
2023/12/31 01:10:16;;;;;;;12.00;3.20;;;;;;;3.21;100.00;99494.39;104669;1257;1002989;-60
2023/12/31 01:13:04;;;;;;;9.40;2.60;;;;;;;3.16;100.00;99495.56;109235;1257;73870;-59
2023/12/31 01:15:52;;;;;;;14.10;3.40;;;;;;;3.10;100.00;99497.48;109109;1256;57413;-59
2023/12/31 01:18:40;;;;;;;13.70;3.40;;;;;;;3.09;100.00;99494.71;109079;1257;57770;-59
2023/12/31 01:21:27;;;;;;;11.50;3.20;;;;;;;3.09;100.00;99498.23;109224;1257;72238;-60
2023/12/31 01:24:15;;;;;;;6.90;2.60;;;;;;;3.09;100.00;99499.66;109227;1257;68914;-60
2023/12/31 01:27:03;;;;;;;10.60;3.30;;;;;;;3.05;100.00;99500.52;109201;1257;72553;-60
2023/12/31 01:29:51;;;;;;;11.40;2.70;;;;;;;3.04;100.00;99503.93;109009;1257;57364;-59
2023/12/31 01:32:38;;;;;;;11.60;3.20;;;;;;;3.04;100.00;99502.55;109137;1257;58194;-60
2023/12/31 01:35:26;;;;;;;12.10;3.10;;;;;;;3.03;100.00;99506.25;109115;1257;73063;-63
2023/12/31 01:38:14;;;;;;;11.80;2.80;;;;;;;3.01;100.00;99504.84;109076;1257;66295;-63
2023/12/31 01:41:07;;;;;;;10.50;2.90;;;;;;;2.98;100.00;99502.20;109189;1257;73555;-60
2023/12/31 01:44:06;;;;;;;12.60;3.00;;;;;;;2.97;100.00;99502.95;109208;1257;58197;-60
2023/12/31 01:46:53;;;;;;;10.00;3.20;;;;;;;2.98;100.00;99505.53;109032;1256;61088;-61
2023/12/31 01:49:42;;;;;;;11.30;3.10;;;;;;;2.96;100.00;99505.42;109112;1257;74241;-60
2023/12/31 01:52:31;;;;;;;12.30;2.90;;;;;;;2.98;100.00;99508.12;109029;1257;67698;-60
2023/12/31 01:55:19;;;;;;;11.90;2.80;;;;;;;2.99;100.00;99508.22;109088;1259;73507;-60
2023/12/31 01:58:09;;;;;;;9.00;3.10;;;;;;;2.98;100.00;99502.88;109072;1259;57206;-60
2023/12/31 02:00:57;;;;;;;11.00;2.90;;;;;;;2.96;100.00;99509.84;109111;1260;61403;-60
2023/12/31 02:03:44;;;;;;;11.50;2.80;;;;;;;2.94;100.00;99508.73;109019;1259;74068;-59
2023/12/31 02:06:32;;;;;;;10.10;2.80;;;;;;;2.92;100.00;99513.03;109001;1259;66670;-59
2023/12/31 02:09:20;;;;;;;10.20;2.40;;;;;;;2.89;100.00;99511.61;109081;1259;72973;-60
2023/12/31 02:12:09;;;;;;;10.30;3.50;;;;;;;2.90;100.00;99516.63;108953;1259;58761;-60
2023/12/31 02:14:57;;;;;;;13.30;3.30;;;;;;;2.91;100.00;99514.30;109012;1259;59432;-60
2023/12/31 02:17:44;;;;;;;9.80;3.00;;;;;;;2.92;100.00;99517.24;109004;1259;72769;-60
2023/12/31 02:20:32;;;;;;;10.20;3.20;;;;;;;2.93;100.00;99521.55;109080;1258;68071;-60
2023/12/31 02:23:20;;;;;;;10.80;3.10;;;;;;;2.95;100.00;99520.06;108994;1258;72898;-61
2023/12/31 02:26:11;;;;;;;8.20;3.00;;;;;;;2.93;100.00;99522.77;109064;1258;57249;-60
2023/12/31 02:28:59;;;;;;;11.10;3.30;;;;;;;2.92;100.00;99522.29;109102;1259;60103;-59
2023/12/31 02:31:47;;;;;;;12.40;4.10;;;;;;;2.92;100.00;99522.52;109082;1259;71821;-59
2023/12/31 02:34:35;;;;;;;10.10;2.90;;;;;;;2.89;100.00;99527.90;108987;1260;66668;-62
2023/12/31 02:37:22;;;;;;;15.90;3.60;;;;;;;2.86;100.00;99525.27;109060;1259;72428;-61
2023/12/31 02:40:10;;;;;;;13.70;3.00;;;;;;;2.85;100.00;99528.31;109048;1259;57377;-61
2023/12/31 02:42:58;;;;;;;11.80;3.30;;;;;;;2.80;100.00;99524.16;109041;1259;61582;-63
2023/12/31 02:45:45;;;;;;;10.20;3.30;;;;;;;2.78;100.00;99528.14;108845;1259;72708;-59
2023/12/31 02:48:33;;;;;;;8.30;2.70;;;;;;;2.74;100.00;99526.27;108955;1259;67638;-60
2023/12/31 02:51:21;;;;;;;9.80;2.80;;;;;;;2.70;100.00;99525.42;109075;1259;73657;-60
2023/12/31 02:54:09;;;;;;;9.20;2.60;;;;;;;2.65;100.00;99520.79;108989;1259;57438;-60
2023/12/31 02:56:58;;;;;;;11.20;2.80;;;;;;;2.60;100.00;99518.60;109045;1258;60223;-61
2023/12/31 02:59:46;;;;;;;11.90;3.20;;;;;;;2.54;100.00;99520.13;109115;1258;71746;-63
2023/12/31 03:02:35;;;;;;;11.30;3.30;;;;;;;2.49;100.00;99522.15;108988;1257;66531;-59
2023/12/31 03:05:23;;;;;;;15.40;3.70;;;;;;;2.44;100.00;99530.80;109103;1259;72446;-59
2023/12/31 03:08:11;;;;;;;10.00;3.20;;;;;;;2.37;100.00;99531.88;109005;1259;57492;-60
2023/12/31 03:10:58;;;;;;;11.90;2.90;;;;;;;2.33;100.00;99533.64;109134;1258;60303;-60
2023/12/31 03:13:46;;;;;;;11.30;2.90;;;;;;;2.29;100.00;99534.74;109151;1258;72055;-60
2023/12/31 03:16:34;;;;;;;11.30;2.80;;;;;;;2.23;100.00;99535.56;109046;1258;66425;-61
2023/12/31 03:19:23;;;;;;;12.30;3.10;;;;;;;2.20;100.00;99537.12;109150;1260;72414;-61
2023/12/31 03:22:10;;;;;;;12.20;3.40;;;;;;;2.14;100.00;99537.09;109054;1259;58482;-61
2023/12/31 03:25:16;;;;;;;11.30;2.90;;;;;;;2.07;100.00;99535.52;109066;1259;60262;-60
2023/12/31 03:28:04;;;;;;;14.20;3.20;;;;;;;2.00;100.00;99533.39;109106;1260;74205;-60
2023/12/31 03:30:52;;;;;;;15.30;3.50;;;;;;;1.97;100.00;99531.65;109082;1257;68564;-58
2023/12/31 03:33:40;;;;;;;12.10;3.40;;;;;;;1.93;100.00;99532.38;109097;1257;72500;-59
2023/12/31 03:36:27;;;;;;;14.00;3.60;;;;;;;1.90;100.00;99538.81;109021;1259;59270;-60
2023/12/31 03:39:15;;;;;;;12.30;3.20;;;;;;;1.89;100.00;99543.44;109138;1257;58734;-60
2023/12/31 03:42:04;;;;;;;10.60;3.10;;;;;;;1.88;100.00;99542.08;106855;1260;1002617;-60
2023/12/31 03:44:51;;;;;;;9.20;2.90;;;;;;;1.88;100.00;99546.27;109129;1260;66658;-60
2023/12/31 03:47:39;;;;;;;12.10;2.90;;;;;;;1.89;100.00;99549.05;109007;1258;72944;-61
2023/12/31 03:50:27;;;;;;;11.10;2.60;;;;;;;1.90;100.00;99552.11;109134;1257;57313;-60
2023/12/31 03:53:15;;;;;;;12.00;3.10;;;;;;;1.91;100.00;99553.11;109011;1258;59076;-60
2023/12/31 03:56:03;;;;;;;14.40;3.40;;;;;;;1.93;100.00;99554.94;109069;1260;73001;-59
2023/12/31 03:58:51;;;;;;;12.20;3.60;;;;;;;1.96;100.00;99555.15;109151;1258;66743;-60
2023/12/31 04:01:45;;;;;;;15.10;3.10;;;;;;;2.01;100.00;99552.96;109153;1257;70390;-60
2023/12/31 04:04:33;;;;;;;12.30;3.60;;;;;;;2.08;100.00;99550.86;109085;1258;58359;-60
2023/12/31 04:07:21;;;;;;;15.20;3.40;;;;;;;2.15;100.00;99553.50;108901;1260;312803;-59
2023/12/31 04:10:09;;;;;;;9.00;2.80;;;;;;;2.20;100.00;99552.03;109147;1257;71723;-60
2023/12/31 04:12:56;;;;;;;12.70;3.10;;;;;;;2.24;100.00;99551.27;109124;1257;68788;-60
2023/12/31 04:15:44;;;;;;;12.10;2.80;;;;;;;2.26;100.00;99553.79;109116;1258;73459;-59
2023/12/31 04:18:33;;;;;;;11.40;2.30;;;;;;;2.28;100.00;99556.50;109105;1259;60007;-59
2023/12/31 04:21:20;;;;;;;8.10;2.40;;;;;;;2.31;100.00;99559.14;108990;1257;59981;-61
2023/12/31 04:24:08;;;;;;;10.40;2.70;;;;;;;2.32;100.00;99553.45;109159;1258;72799;-60
2023/12/31 04:26:57;;;;;;;11.10;2.40;;;;;;;2.34;100.00;99549.71;108991;1258;67764;-60
2023/12/31 04:29:46;;;;;;;12.60;2.90;;;;;;;2.36;100.00;99551.19;108964;1259;73482;-60
2023/12/31 04:32:33;;;;;;;12.00;2.80;;;;;;;2.39;100.00;99548.42;109045;1257;58543;-62
2023/12/31 04:35:21;;;;;;;9.70;3.00;;;;;;;2.41;100.00;99551.11;108938;1259;60049;-60
2023/12/31 04:38:09;;;;;;;10.30;2.30;;;;;;;2.41;100.00;99547.10;109013;1259;73166;-60
2023/12/31 04:40:56;;;;;;;9.10;2.10;;;;;;;2.44;100.00;99551.84;108999;1259;68755;-62
2023/12/31 04:43:44;;;;;;;11.00;2.60;;;;;;;2.42;100.00;99551.08;108961;1259;72454;-62
2023/12/31 04:46:32;;;;;;;12.00;2.40;;;;;;;2.40;100.00;99552.42;109021;1259;58781;-62
2023/12/31 04:49:21;;;;;;;12.30;3.10;;;;;;;2.37;100.00;99551.29;109032;1259;58788;-60
2023/12/31 04:52:08;;;;;;;13.90;2.60;;;;;;;2.35;100.00;99554.35;109051;1259;73795;-62
2023/12/31 04:54:57;;;;;;;11.60;2.80;;;;;;;2.34;100.00;99553.93;109061;1259;66900;-61
2023/12/31 04:57:45;;;;;;;13.20;3.00;;;;;;;2.33;100.00;99551.88;108953;1259;72512;-61
2023/12/31 05:00:33;;;;;;;14.20;2.80;;;;;;;2.31;100.00;99553.88;109035;1259;58720;-59
2023/12/31 05:03:20;;;;;;;10.10;2.90;;;;;;;2.33;100.00;99555.88;109091;1259;60343;-61
2023/12/31 05:06:10;;;;;;;10.10;2.70;;;;;;;2.35;100.00;99550.87;108906;1260;74057;-60
2023/12/31 05:08:58;;;;;;;14.50;3.10;;;;;;;2.35;100.00;99552.29;109049;1259;66372;-61
2023/12/31 05:11:46;;;;;;;12.10;2.80;;;;;;;2.37;100.00;99554.64;108956;1259;72454;-61
2023/12/31 05:14:34;;;;;;;10.40;2.80;;;;;;;2.35;100.00;99556.15;109020;1259;58065;-59
2023/12/31 05:17:22;;;;;;;14.10;2.80;;;;;;;2.33;100.00;99562.19;109065;1259;59123;-61
2023/12/31 05:20:10;;;;;;;14.00;3.00;;;;;;;2.34;100.00;99561.29;108927;1259;73618;-60
2023/12/31 05:22:58;;;;;;;13.20;3.10;;;;;;;2.35;100.00;99562.46;108973;1260;67918;-61
2023/12/31 05:25:45;;;;;;;9.10;2.90;;;;;;;2.37;100.00;99563.37;108740;1262;73378;-62
2023/12/31 05:28:33;;;;;;;11.90;3.20;;;;;;;2.39;100.00;99565.04;108738;1262;58697;-61
2023/12/31 05:31:21;;;;;;;9.70;3.60;;;;;;;2.42;100.00;99564.88;108769;1262;60341;-60
2023/12/31 05:34:09;;;;;;;14.30;3.60;;;;;;;2.44;100.00;99570.60;108766;1262;73897;-60
2023/12/31 05:36:57;;;;;;;10.00;2.40;;;;;;;2.42;100.00;99568.05;108792;1262;67947;-61
2023/12/31 05:39:45;;;;;;;9.50;2.60;;;;;;;2.40;100.00;99571.30;108732;1262;71163;-61
2023/12/31 05:42:34;;;;;;;11.00;3.00;;;;;;;2.38;100.00;99576.65;108759;1263;58493;-59
2023/12/31 05:45:22;;;;;;;8.50;3.20;;;;;;;2.36;100.00;99579.70;108781;1263;60096;-60
2023/12/31 05:48:10;;;;;;;9.80;2.50;;;;;;;2.34;100.00;99576.31;108679;1263;73641;-60
2023/12/31 05:50:58;;;;;;;11.90;3.80;;;;;;;2.33;100.00;99571.31;108787;1263;68616;-60
2023/12/31 05:53:46;;;;;;;15.90;3.30;;;;;;;2.34;100.00;99571.77;108719;1263;72446;-62
2023/12/31 05:56:33;;;;;;;11.70;3.20;;;;;;;2.35;100.00;99570.48;108795;1259;58727;-61
2023/12/31 05:59:21;;;;;;;11.30;3.80;;;;;;;2.37;100.00;99568.99;109125;1257;60311;-59
2023/12/31 06:02:09;;;;;;;12.00;3.00;;;;;;;2.36;100.00;99568.16;109151;1257;73679;-60
2023/12/31 06:04:56;;;;;;;11.40;2.80;;;;;;;2.32;100.00;99569.61;109063;1257;69014;-61
2023/12/31 06:07:44;;;;;;;11.70;3.50;;;;;;;2.27;100.00;99572.51;109121;1257;72651;-62
2023/12/31 06:10:32;;;;;;;10.80;3.50;;;;;;;2.22;100.00;99574.52;108309;1257;1002965;-60
2023/12/31 06:13:19;;;;;;;15.20;4.00;;;;;;;2.19;100.00;99582.70;109116;1257;59357;-62
2023/12/31 06:16:07;;;;;;;13.80;4.50;;;;;;;2.17;100.00;99582.61;108940;1257;73689;-61
2023/12/31 06:18:55;;;;;;;16.30;4.30;;;;;;;2.18;100.00;99587.48;109006;1258;69032;-60
2023/12/31 06:21:42;;;;;;;12.50;4.20;;;;;;;2.21;100.00;99593.44;109000;1258;73637;-60
2023/12/31 06:24:30;;;;;;;16.40;4.40;;;;;;;2.24;100.00;99595.25;109030;1258;58072;-59
2023/12/31 06:27:17;;;;;;;15.30;3.90;;;;;;;2.22;100.00;99587.09;108979;1258;58089;-61
2023/12/31 06:30:06;;;;;;;16.00;4.10;;;;;;;2.26;100.00;99594.23;109085;1258;74594;-61
2023/12/31 06:32:54;;;;;;;13.60;4.60;;;;;;;2.30;100.00;99597.57;106784;1257;1002954;-59
2023/12/31 06:35:42;;;;;;;15.30;4.20;;;;;;;2.33;100.00;99600.17;109101;1257;71481;-61
2023/12/31 06:38:30;;;;;;;13.30;4.20;;;;;;;2.36;100.00;99605.80;109168;1257;58168;-61
2023/12/31 06:41:21;;;;;;;12.90;3.10;;;;;;;2.39;100.00;99600.77;109166;1257;60419;-61
2023/12/31 06:44:08;;;;;;;16.40;3.60;;;;;;;2.34;100.00;99598.19;109100;1260;73636;-62
2023/12/31 06:46:56;;;;;;;15.10;3.30;;;;;;;2.30;100.00;99591.58;109013;1260;69003;-61
2023/12/31 06:49:44;;;;;;;13.50;3.80;;;;;;;2.28;100.00;99590.61;109079;1259;73847;-61
2023/12/31 06:52:32;;;;;;;13.80;3.90;;;;;;;2.28;100.00;99588.36;109024;1260;58271;-60
2023/12/31 06:55:19;;;;;;;13.20;4.20;;;;;;;2.28;100.00;99590.80;109024;1259;59981;-59
2023/12/31 06:58:07;;;;;;;13.30;4.10;;;;;;;2.24;100.00;99597.35;109070;1258;73676;-61
2023/12/31 07:00:55;;;;;;;13.90;4.00;;;;;;;2.21;100.00;99602.53;109116;1259;67837;-61
2023/12/31 07:03:43;;;;;;;13.00;4.30;;;;;;;2.22;100.00;99606.52;108877;1258;71148;-61
2023/12/31 07:06:31;;;;;;;11.70;3.70;;;;;;;2.18;100.00;99606.93;107533;1259;1002573;-61
2023/12/31 07:09:19;;;;;;;16.10;4.40;;;;;;;2.11;100.00;99616.19;109089;1258;58906;-61
2023/12/31 07:12:07;;;;;;;11.10;3.60;;;;;;;2.08;100.00;99619.49;108986;1259;72341;-60
2023/12/31 07:14:54;;;;;;;12.30;4.30;;;;;;;2.04;100.00;99613.73;109097;1259;66299;-61
2023/12/31 07:17:42;;;;;;;17.90;5.10;;;;;;;1.98;100.00;99610.70;108918;1259;73409;-61
2023/12/31 07:20:31;;;;;;;12.90;4.60;;;;;;;1.96;100.00;99613.41;109005;1259;58804;-61
2023/12/31 07:23:18;;;;;;;15.80;4.10;;;;;;;1.96;100.00;99615.70;108989;1259;58743;-61
2023/12/31 07:26:07;;;;;;;13.90;4.80;;;;;;;1.95;100.00;99617.14;109050;1259;74881;-60
2023/12/31 07:28:55;;;;;;;11.60;4.90;;;;;;;1.98;100.00;99617.17;108991;1259;68711;-61
2023/12/31 07:31:57;;;;;;;15.40;5.00;;;;;;;1.98;100.00;99612.44;108895;1260;72831;-61
2023/12/31 07:34:45;;;;;;;14.90;5.30;;;;;;;1.98;100.00;99611.21;108945;1258;58912;-63
2023/12/31 07:37:33;;;;;;;12.00;4.90;;;;;;;1.98;100.00;99608.39;108998;1258;61051;-61
2023/12/31 07:40:21;;;;;;;12.80;5.30;;;;;;;2.00;100.00;99610.39;109090;1258;74580;-62
2023/12/31 07:43:09;;;;;;;15.00;5.90;;;;;;;1.99;100.00;99619.19;109087;1258;68295;-61
2023/12/31 07:45:56;;;;;;;16.70;4.90;;;;;;;1.94;100.00;99624.00;109007;1259;73568;-61
2023/12/31 07:48:43;;;;;;;13.90;5.50;;;;;;;1.90;100.00;99628.39;109047;1260;58129;-60
2023/12/31 07:51:32;;;;;;;14.40;5.10;;;;;;;1.89;100.00;99634.56;109047;1258;58891;-61
2023/12/31 07:54:19;;;;;;;17.50;5.90;;;;;;;1.90;100.00;99637.85;109011;1259;73531;-61
2023/12/31 07:57:06;;;;;;;18.60;5.60;;;;;;;1.91;100.00;99632.21;109131;1260;66862;-61
2023/12/31 07:59:54;;;;;;;16.50;6.20;;;;;;;1.94;100.00;99630.64;109100;1260;72377;-61
2023/12/31 08:02:43;;;;;;;21.70;7.10;;;;;;;1.99;100.00;99631.80;109073;1258;59845;-60
2023/12/31 08:05:32;;;;;;;16.20;6.90;;;;;;;2.10;100.00;99633.23;109035;1258;60324;-63
2023/12/31 08:08:20;;;;;;;17.20;7.00;;;;;;;2.15;100.00;99635.21;109024;1259;72477;-63
2023/12/31 08:11:09;;;;;;;17.60;6.80;;;;;;;2.15;100.00;99642.21;109067;1260;67885;-62
2023/12/31 08:13:56;;;;;;;16.90;6.60;;;;;;;2.14;100.00;99638.05;109098;1259;72812;-63
2023/12/31 08:16:44;;;;;;;21.50;7.60;;;;;;;2.13;100.00;99637.58;108326;1259;1002169;-62
2023/12/31 08:19:32;;;;;;;17.30;7.20;;;;;;;2.15;100.00;99634.16;109104;1257;58931;-62
2023/12/31 08:22:19;;;;;;;17.70;6.90;;;;;;;2.18;100.00;99638.40;108959;1258;74900;-61
2023/12/31 08:25:07;;;;;;;19.80;7.60;;;;;;;2.21;100.00;99641.56;109031;1257;67882;-59
2023/12/31 08:27:54;;;;;;;20.30;7.60;;;;;;;2.24;100.00;99651.23;109057;1260;72625;-63
2023/12/31 08:30:42;;;;;;;17.50;7.20;;;;;;;2.23;100.00;99649.38;109087;1257;58159;-60
2023/12/31 08:33:35;;;;;;;13.90;5.90;;;;;;;2.21;100.00;99649.64;109131;1258;58885;-60
2023/12/31 08:36:23;;;;;;;17.50;6.70;;;;;;;2.20;100.00;99649.19;109017;1257;72724;-61
2023/12/31 08:39:11;;;;;;;14.00;6.10;;;;;;;2.18;100.00;99648.90;108991;1258;67837;-62
2023/12/31 08:41:58;;;;;;;16.70;7.60;;;;;;;2.12;100.00;99654.80;109078;1260;72576;-62
2023/12/31 08:44:46;;;;;;;15.50;7.10;;;;;;;2.08;100.00;99658.86;109115;1259;58563;-62
2023/12/31 08:47:52;;;;;;;11.70;5.30;;;;;;;2.11;100.00;99654.89;108981;1261;60431;-64
2023/12/31 08:50:41;;;;;;;11.40;5.20;;;;;;;2.04;100.00;99652.02;109067;1259;74012;-63
2023/12/31 08:53:28;;;;;;;13.20;6.00;;;;;;;2.02;100.00;99655.82;109093;1258;68861;-65
2023/12/31 08:56:16;;;;;;;11.90;5.10;;;;;;;2.09;100.00;99657.09;108976;1258;71117;-61
2023/12/31 08:59:03;;;;;;;12.40;5.20;;;;;;;2.08;100.00;99657.46;109070;1259;59174;-63
2023/12/31 09:01:51;;;;;;;12.00;5.20;;;;;;;1.96;100.00;99662.77;108967;1260;60186;-62
2023/12/31 09:04:40;;;;;;;11.70;5.00;;;;;;;1.92;100.00;99663.33;109036;1257;73865;-63
2023/12/31 09:07:27;;;;;;;13.30;6.40;;;;;;;1.94;100.00;99660.24;108964;1260;65380;-61
2023/12/31 09:10:15;;;;;;;14.50;6.70;;;;;;;2.01;100.00;99658.63;109056;1258;72430;-62
2023/12/31 09:13:05;;;;;;;14.80;7.10;;;;;;;2.14;100.00;99655.25;108989;1259;58152;-61
2023/12/31 09:15:55;;;;;;;17.30;7.70;;;;;;;2.26;100.00;99659.03;109093;1259;58917;-62
2023/12/31 09:18:43;;;;;;;15.40;7.00;;;;;;;2.33;100.00;99653.40;109045;1257;73931;-61
2023/12/31 09:21:31;;;;;;;16.10;7.20;;;;;;;2.46;100.00;99651.55;109112;1260;67631;-62
2023/12/31 09:24:18;;;;;;;14.10;6.90;;;;;;;2.60;100.00;99649.63;109004;1258;71724;-61
2023/12/31 09:27:09;;;;;;;13.70;6.30;;;;;;;2.80;100.00;99640.50;109051;1258;58128;-61
2023/12/31 09:29:57;;;;;;;13.00;5.70;;;;;;;2.94;100.00;99641.56;109116;1258;58938;-61
2023/12/31 09:32:45;;;;;;;14.80;6.80;;;;;;;3.02;100.00;99636.40;109122;1258;72405;-62
2023/12/31 09:35:33;;;;;;;11.60;5.90;;;;;;;3.10;100.00;99636.35;108993;1258;67597;-61
2023/12/31 09:38:21;;;;;;;12.50;5.50;;;;;;;3.20;100.00;99634.40;109050;1258;71266;-64
2023/12/31 09:41:15;;;;;;;13.30;6.10;;;;;;;3.35;100.00;99633.39;109105;1260;58080;-62
2023/12/31 09:44:04;;;;;;;11.90;6.10;;;;;;;3.53;100.00;99631.72;109074;1258;60301;-63
2023/12/31 09:47:07;;;;;;;13.30;5.60;;;;;;;3.63;100.00;99629.97;108992;1260;72326;-64
2023/12/31 09:49:59;;;;;;;12.10;5.00;;;;;;;3.73;100.00;99634.28;109125;1260;67893;-60
2023/12/31 09:52:48;;;;;;;12.60;5.40;;;;;;;3.88;100.00;99625.91;109059;1258;72469;-63
2023/12/31 09:55:37;;;;;;;12.50;5.20;;;;;;;3.91;100.00;99619.77;108899;1260;59779;-61
2023/12/31 09:58:25;;;;;;;11.80;5.80;;;;;;;3.85;100.00;99613.79;109084;1260;60480;-62
2023/12/31 10:01:13;;;;;;;12.70;5.30;;;;;;;3.79;100.00;99611.83;108947;1259;74886;-64
2023/12/31 10:04:02;;;;;;;13.30;5.40;;;;;;;3.76;100.00;99609.55;109081;1261;68935;-61
2023/12/31 10:06:51;;;;;;;11.80;5.20;;;;;;;3.82;100.00;99612.55;109023;1260;71463;-61
2023/12/31 10:09:41;;;;;;;12.60;6.00;;;;;;;3.94;100.00;99602.23;108992;1257;58748;-63
2023/12/31 10:12:29;;;;;;;14.00;5.60;;;;;;;4.11;100.00;99604.04;109088;1260;61384;-61
2023/12/31 10:15:17;;;;;;;13.70;5.60;;;;;;;4.19;100.00;99603.77;108991;1260;73877;-61
2023/12/31 10:18:08;;;;;;;13.30;5.80;;;;;;;4.30;100.00;99597.65;108959;1260;67680;-62
2023/12/31 10:20:56;;;;;;;13.50;5.80;;;;;;;4.54;100.00;99599.77;109056;1260;71461;-62
2023/12/31 10:23:44;;;;;;;11.80;5.70;;;;;;;4.80;99.45;99602.41;109019;1260;58105;-61
2023/12/31 10:26:35;;;;;;;12.80;5.40;;;;;;;5.03;98.63;99596.42;109082;1259;60161;-61
2023/12/31 10:29:22;;;;;;;12.00;5.90;;;;;;;5.09;96.38;99595.89;109125;1259;73517;-62
2023/12/31 10:32:10;;;;;;;11.60;5.00;;;;;;;5.03;95.98;99592.05;108946;1258;68943;-64
2023/12/31 10:35:03;;;;;;;11.80;5.40;;;;;;;4.96;96.55;99588.42;108987;1259;72660;-67
2023/12/31 10:38:04;;;;;;;13.80;6.30;;;;;;;4.81;96.37;99591.95;108972;1259;59520;-64
2023/12/31 10:40:53;;;;;;;15.10;6.70;;;;;;;4.62;96.65;99589.23;109006;1259;61522;-64
2023/12/31 10:43:41;;;;;;;13.50;6.40;;;;;;;4.41;97.49;99584.36;109071;1259;73722;-66
2023/12/31 10:46:30;;;;;;;15.10;6.90;;;;;;;4.10;98.58;99591.42;109066;1260;66389;-63
2023/12/31 10:49:22;;;;;;;12.90;6.00;;;;;;;3.90;99.64;99592.27;108970;1260;73270;-62
2023/12/31 10:52:14;;;;;;;16.50;7.20;;;;;;;3.64;100.00;99601.64;109001;1258;58666;-64
2023/12/31 10:55:02;;;;;;;16.60;7.80;;;;;;;3.38;100.00;99593.41;108999;1259;58097;-61
2023/12/31 10:57:51;;;;;;;18.60;9.10;;;;;;;3.27;100.00;99590.51;109003;1258;74859;-62
2023/12/31 11:00:40;;;;;;;20.70;10.30;;;;;;;3.20;100.00;99590.16;109009;1258;68564;-62
2023/12/31 11:03:32;;;;;;;20.10;9.80;;;;;;;3.17;100.00;99595.61;108959;1260;72841;-62
2023/12/31 11:06:21;;;;;;;18.60;8.00;;;;;;;3.07;100.00;99588.81;108987;1258;59556;-62
2023/12/31 11:09:09;;;;;;;20.70;8.00;;;;;;;2.92;100.00;99585.04;108980;1262;59103;-62
2023/12/31 11:11:57;;;;;;;21.10;9.60;;;;;;;2.84;100.00;99587.21;109080;1259;74472;-61
2023/12/31 11:15:08;;;;;;;21.60;9.30;;;;;;;2.85;100.00;99579.31;109012;1259;66805;-62
2023/12/31 11:19:01;;;;;;;19.80;9.30;;;;;;;2.89;100.00;99573.42;109026;1260;72465;-62
2023/12/31 11:22:09;;;;;;;18.00;7.40;;;;;;;2.83;100.00;99574.31;108431;1268;58616;-63
2023/12/31 11:24:58;;;;;;;20.30;8.90;;;;;;;2.75;100.00;99569.45;108425;1268;60108;-62
2023/12/31 11:27:48;;;;;;;18.40;8.40;;;;;;;2.72;100.00;99562.77;108440;1269;74501;-61
2023/12/31 11:31:02;;;;;;;21.80;9.90;;;;;;;2.73;100.00;99552.22;108430;1268;69024;-59
2023/12/31 11:33:50;;;;;;;17.30;8.00;;;;;;;2.83;100.00;99549.23;108414;1268;71156;-61
2023/12/31 11:36:39;;;;;;;22.30;9.30;;;;;;;2.84;100.00;99547.80;108407;1268;58155;-61
2023/12/31 11:39:27;;;;;;;21.20;8.70;;;;;;;2.83;100.00;99546.09;108344;1269;58754;-62
2023/12/31 11:42:17;;;;;;;22.00;9.60;;;;;;;2.82;100.00;99538.78;108460;1269;73837;-61
2023/12/31 11:45:05;;;;;;;19.60;8.70;;;;;;;2.79;100.00;99530.91;108429;1268;68743;-61
2023/12/31 11:47:53;;;;;;;24.30;10.60;;;;;;;2.86;100.00;99534.21;108435;1267;72403;-60
2023/12/31 11:50:41;;;;;;;26.60;10.40;;;;;;;2.99;100.00;99530.50;108402;1269;58099;-62
2023/12/31 11:53:50;;;;;;;22.50;9.20;;;;;;;3.11;100.00;99521.96;108388;1268;61194;-62
2023/12/31 11:56:45;;;;;;;25.60;9.70;;;;;;;3.14;100.00;99511.30;108313;1268;73847;-61
2023/12/31 11:59:38;;;;;;;22.00;9.80;;;;;;;3.16;100.00;99501.69;108836;1258;66780;-60
2023/12/31 12:02:26;;;;;;;20.40;9.20;;;;;;;3.27;100.00;99496.88;109063;1259;73833;-61
2023/12/31 12:05:14;;;;;;;19.60;9.00;;;;;;;3.41;100.00;99498.57;108976;1258;58141;-62
2023/12/31 12:08:05;;;;;;;16.40;8.10;;;;;;;3.53;100.00;99498.41;109049;1259;60024;-62
2023/12/31 12:10:52;;;;;;;15.20;7.10;;;;;;;3.57;100.00;99497.06;109072;1258;73569;-61
2023/12/31 12:13:40;;;;;;;18.50;7.60;;;;;;;3.54;100.00;99493.75;109088;1259;66334;-64
2023/12/31 12:16:28;;;;;;;14.80;6.40;;;;;;;3.47;100.00;99491.52;109049;1259;71089;-62
2023/12/31 12:19:17;;;;;;;20.00;8.80;;;;;;;3.37;100.00;99486.35;109030;1260;58493;-62
2023/12/31 12:22:05;;;;;;;17.60;7.40;;;;;;;3.28;100.00;99486.16;109007;1259;61308;-66
2023/12/31 12:24:54;;;;;;;18.30;8.00;;;;;;;3.19;100.00;99490.31;108988;1260;74734;-61
2023/12/31 12:27:41;;;;;;;12.80;5.60;;;;;;;3.09;100.00;99490.15;109042;1259;66584;-61
2023/12/31 12:30:29;;;;;;;16.40;8.20;;;;;;;2.93;100.00;99487.38;108971;1260;71455;-62
2023/12/31 12:33:17;;;;;;;17.50;7.80;;;;;;;2.80;100.00;99487.20;109001;1261;58589;-62
2023/12/31 12:36:05;;;;;;;17.40;7.40;;;;;;;2.74;100.00;99488.08;108981;1260;60676;-62
2023/12/31 12:38:53;;;;;;;20.60;7.60;;;;;;;2.67;100.00;99484.91;109015;1260;73639;-63
2023/12/31 12:41:45;;;;;;;17.70;7.80;;;;;;;2.57;100.00;99478.82;109092;1259;67119;-61
2023/12/31 12:44:34;;;;;;;16.50;7.30;;;;;;;2.59;100.00;99484.34;108921;1260;71343;-62
2023/12/31 12:47:23;;;;;;;18.50;7.90;;;;;;;2.52;100.00;99482.77;108995;1257;58130;-62
2023/12/31 12:50:11;;;;;;;17.50;7.90;;;;;;;2.42;100.00;99482.43;108989;1263;60335;-61
2023/12/31 12:52:59;;;;;;;17.10;7.70;;;;;;;2.33;100.00;99479.23;109023;1260;72576;-65
2023/12/31 12:55:47;;;;;;;19.40;8.40;;;;;;;2.22;100.00;99477.19;109033;1259;67702;-61
2023/12/31 12:58:35;;;;;;;20.80;8.20;;;;;;;2.11;100.00;99475.10;109057;1261;73447;-61